sensor_id;sensor_type;location;lat;lon;timestamp;P1;durP1;ratioP1;P2;durP2;ratioP2
19207;SDS011;9737;59.466;18.036;2023-04-03T00:00:49;11.48;;;3.20;;
19207;SDS011;9737;59.466;18.036;2023-04-03T00:03:18;8.88;;;3.10;;
19207;SDS011;9737;59.466;18.036;2023-04-03T00:05:47;5.93;;;3.00;;
19207;SDS011;9737;59.466;18.036;2023-04-03T00:08:16;6.18;;;2.90;;
19207;SDS011;9737;59.466;18.036;2023-04-03T00:10:44;9.02;;;2.75;;
19207;SDS011;9737;59.466;18.036;2023-04-03T00:13:12;11.00;;;3.05;;
19207;SDS011;9737;59.466;18.036;2023-04-03T00:15:41;6.35;;;3.13;;
19207;SDS011;9737;59.466;18.036;2023-04-03T00:18:10;11.45;;;4.70;;
19207;SDS011;9737;59.466;18.036;2023-04-03T00:20:38;16.45;;;4.63;;
19207;SDS011;9737;59.466;18.036;2023-04-03T00:23:06;11.80;;;4.15;;
19207;SDS011;9737;59.466;18.036;2023-04-03T00:25:34;15.75;;;4.47;;
19207;SDS011;9737;59.466;18.036;2023-04-03T00:28:03;15.60;;;4.50;;
19207;SDS011;9737;59.466;18.036;2023-04-03T00:30:31;20.80;;;4.63;;
19207;SDS011;9737;59.466;18.036;2023-04-03T00:33:00;9.85;;;3.85;;
19207;SDS011;9737;59.466;18.036;2023-04-03T00:35:30;14.38;;;4.00;;
19207;SDS011;9737;59.466;18.036;2023-04-03T00:37:58;15.30;;;4.20;;
19207;SDS011;9737;59.466;18.036;2023-04-03T00:40:26;14.00;;;4.43;;
19207;SDS011;9737;59.466;18.036;2023-04-03T00:42:55;11.85;;;3.70;;
19207;SDS011;9737;59.466;18.036;2023-04-03T00:45:31;16.95;;;3.75;;
19207;SDS011;9737;59.466;18.036;2023-04-03T00:48:02;10.45;;;4.05;;
19207;SDS011;9737;59.466;18.036;2023-04-03T00:50:35;10.00;;;3.72;;
19207;SDS011;9737;59.466;18.036;2023-04-03T00:53:06;14.57;;;3.70;;
19207;SDS011;9737;59.466;18.036;2023-04-03T00:55:36;12.35;;;3.70;;
19207;SDS011;9737;59.466;18.036;2023-04-03T00:58:05;12.10;;;3.53;;
19207;SDS011;9737;59.466;18.036;2023-04-03T01:00:34;14.73;;;3.92;;
19207;SDS011;9737;59.466;18.036;2023-04-03T01:03:04;7.85;;;3.30;;
19207;SDS011;9737;59.466;18.036;2023-04-03T01:05:32;13.57;;;4.07;;
19207;SDS011;9737;59.466;18.036;2023-04-03T01:08:03;8.90;;;3.80;;
19207;SDS011;9737;59.466;18.036;2023-04-03T01:10:32;12.52;;;4.00;;
19207;SDS011;9737;59.466;18.036;2023-04-03T01:13:00;11.32;;;3.35;;
19207;SDS011;9737;59.466;18.036;2023-04-03T01:15:28;11.90;;;3.72;;
19207;SDS011;9737;59.466;18.036;2023-04-03T01:18:01;11.13;;;3.92;;
19207;SDS011;9737;59.466;18.036;2023-04-03T01:24:02;8.30;;;3.90;;
19207;SDS011;9737;59.466;18.036;2023-04-03T01:26:39;13.68;;;3.90;;
19207;SDS011;9737;59.466;18.036;2023-04-03T01:29:07;7.85;;;3.80;;
19207;SDS011;9737;59.466;18.036;2023-04-03T01:31:45;18.42;;;3.80;;
19207;SDS011;9737;59.466;18.036;2023-04-03T01:34:15;13.82;;;3.90;;
19207;SDS011;9737;59.466;18.036;2023-04-03T01:36:44;14.23;;;3.90;;
19207;SDS011;9737;59.466;18.036;2023-04-03T01:39:12;17.95;;;3.97;;
19207;SDS011;9737;59.466;18.036;2023-04-03T01:41:40;14.27;;;4.32;;
19207;SDS011;9737;59.466;18.036;2023-04-03T01:44:08;10.82;;;4.03;;
19207;SDS011;9737;59.466;18.036;2023-04-03T01:46:37;17.73;;;4.13;;
19207;SDS011;9737;59.466;18.036;2023-04-03T01:49:06;13.75;;;3.70;;
19207;SDS011;9737;59.466;18.036;2023-04-03T01:51:34;9.43;;;3.67;;
19207;SDS011;9737;59.466;18.036;2023-04-03T01:54:02;10.90;;;3.72;;
19207;SDS011;9737;59.466;18.036;2023-04-03T01:56:30;7.85;;;3.42;;
19207;SDS011;9737;59.466;18.036;2023-04-03T01:58:58;13.75;;;3.83;;
19207;SDS011;9737;59.466;18.036;2023-04-03T02:01:26;9.05;;;3.70;;
19207;SDS011;9737;59.466;18.036;2023-04-03T02:03:54;10.68;;;3.65;;
19207;SDS011;9737;59.466;18.036;2023-04-03T02:06:24;9.35;;;3.53;;
19207;SDS011;9737;59.466;18.036;2023-04-03T02:08:52;11.00;;;3.75;;
19207;SDS011;9737;59.466;18.036;2023-04-03T02:11:24;15.70;;;3.70;;
19207;SDS011;9737;59.466;18.036;2023-04-03T02:13:52;6.78;;;3.30;;
19207;SDS011;9737;59.466;18.036;2023-04-03T02:16:20;12.50;;;4.13;;
19207;SDS011;9737;59.466;18.036;2023-04-03T02:18:48;10.98;;;3.97;;
19207;SDS011;9737;59.466;18.036;2023-04-03T02:21:17;18.08;;;4.03;;
19207;SDS011;9737;59.466;18.036;2023-04-03T02:23:46;10.52;;;3.53;;
19207;SDS011;9737;59.466;18.036;2023-04-03T02:26:15;13.40;;;3.60;;
19207;SDS011;9737;59.466;18.036;2023-04-03T02:28:45;15.25;;;4.20;;
19207;SDS011;9737;59.466;18.036;2023-04-03T02:31:13;11.07;;;3.75;;
19207;SDS011;9737;59.466;18.036;2023-04-03T02:33:41;7.25;;;3.40;;
19207;SDS011;9737;59.466;18.036;2023-04-03T02:36:09;12.18;;;3.67;;
19207;SDS011;9737;59.466;18.036;2023-04-03T02:38:37;13.02;;;3.60;;
19207;SDS011;9737;59.466;18.036;2023-04-03T02:41:07;10.57;;;3.33;;
19207;SDS011;9737;59.466;18.036;2023-04-03T02:43:36;11.02;;;3.30;;
19207;SDS011;9737;59.466;18.036;2023-04-03T02:46:05;12.68;;;3.50;;
19207;SDS011;9737;59.466;18.036;2023-04-03T02:48:33;8.02;;;3.45;;
19207;SDS011;9737;59.466;18.036;2023-04-03T02:51:01;7.10;;;3.13;;
19207;SDS011;9737;59.466;18.036;2023-04-03T02:53:29;10.18;;;3.25;;
19207;SDS011;9737;59.466;18.036;2023-04-03T02:55:57;17.63;;;3.80;;
19207;SDS011;9737;59.466;18.036;2023-04-03T02:58:28;15.53;;;4.37;;
19207;SDS011;9737;59.466;18.036;2023-04-03T03:00:56;17.93;;;3.23;;
19207;SDS011;9737;59.466;18.036;2023-04-03T03:03:24;12.27;;;3.80;;
19207;SDS011;9737;59.466;18.036;2023-04-03T03:06:00;9.93;;;3.58;;
19207;SDS011;9737;59.466;18.036;2023-04-03T03:08:30;14.00;;;3.93;;
19207;SDS011;9737;59.466;18.036;2023-04-03T03:10:58;9.85;;;3.65;;
19207;SDS011;9737;59.466;18.036;2023-04-03T03:13:26;11.57;;;3.50;;
19207;SDS011;9737;59.466;18.036;2023-04-03T03:15:55;15.30;;;3.80;;
19207;SDS011;9737;59.466;18.036;2023-04-03T03:18:23;12.73;;;3.40;;
19207;SDS011;9737;59.466;18.036;2023-04-03T03:20:51;8.43;;;3.50;;
19207;SDS011;9737;59.466;18.036;2023-04-03T03:23:21;12.30;;;3.70;;
19207;SDS011;9737;59.466;18.036;2023-04-03T03:25:53;13.98;;;3.63;;
19207;SDS011;9737;59.466;18.036;2023-04-03T03:28:23;12.70;;;3.17;;
19207;SDS011;9737;59.466;18.036;2023-04-03T03:30:50;13.25;;;3.42;;
19207;SDS011;9737;59.466;18.036;2023-04-03T03:33:20;7.78;;;3.42;;
19207;SDS011;9737;59.466;18.036;2023-04-03T03:35:48;13.23;;;3.20;;
19207;SDS011;9737;59.466;18.036;2023-04-03T03:38:16;13.57;;;3.50;;
19207;SDS011;9737;59.466;18.036;2023-04-03T03:40:44;14.33;;;3.30;;
19207;SDS011;9737;59.466;18.036;2023-04-03T03:43:12;15.37;;;3.47;;
19207;SDS011;9737;59.466;18.036;2023-04-03T03:45:40;10.55;;;3.60;;
19207;SDS011;9737;59.466;18.036;2023-04-03T03:48:08;11.07;;;3.80;;
19207;SDS011;9737;59.466;18.036;2023-04-03T03:50:37;12.48;;;3.47;;
19207;SDS011;9737;59.466;18.036;2023-04-03T03:53:05;12.73;;;3.40;;
19207;SDS011;9737;59.466;18.036;2023-04-03T03:55:33;9.70;;;3.67;;
19207;SDS011;9737;59.466;18.036;2023-04-03T03:58:01;9.27;;;3.50;;
19207;SDS011;9737;59.466;18.036;2023-04-03T04:00:29;12.93;;;3.90;;
19207;SDS011;9737;59.466;18.036;2023-04-03T04:02:58;13.65;;;3.78;;
19207;SDS011;9737;59.466;18.036;2023-04-03T04:05:27;5.87;;;3.10;;
19207;SDS011;9737;59.466;18.036;2023-04-03T04:07:56;11.33;;;3.20;;
19207;SDS011;9737;59.466;18.036;2023-04-03T04:10:25;15.63;;;3.80;;
19207;SDS011;9737;59.466;18.036;2023-04-03T04:12:53;9.60;;;3.63;;
19207;SDS011;9737;59.466;18.036;2023-04-03T04:15:23;12.13;;;3.50;;
19207;SDS011;9737;59.466;18.036;2023-04-03T04:17:53;11.97;;;3.13;;
19207;SDS011;9737;59.466;18.036;2023-04-03T04:20:21;15.48;;;3.65;;
19207;SDS011;9737;59.466;18.036;2023-04-03T04:22:49;13.23;;;3.53;;
19207;SDS011;9737;59.466;18.036;2023-04-03T04:25:19;7.37;;;3.73;;
19207;SDS011;9737;59.466;18.036;2023-04-03T04:27:47;9.63;;;4.13;;
19207;SDS011;9737;59.466;18.036;2023-04-03T04:30:19;18.48;;;4.43;;
19207;SDS011;9737;59.466;18.036;2023-04-03T04:32:47;9.20;;;3.93;;
19207;SDS011;9737;59.466;18.036;2023-04-03T04:35:15;16.13;;;3.50;;
19207;SDS011;9737;59.466;18.036;2023-04-03T04:37:43;15.37;;;3.70;;
19207;SDS011;9737;59.466;18.036;2023-04-03T04:40:11;13.73;;;3.57;;
19207;SDS011;9737;59.466;18.036;2023-04-03T04:42:43;10.27;;;3.70;;
19207;SDS011;9737;59.466;18.036;2023-04-03T04:45:11;14.52;;;4.07;;
19207;SDS011;9737;59.466;18.036;2023-04-03T04:47:39;16.57;;;5.83;;
19207;SDS011;9737;59.466;18.036;2023-04-03T04:50:08;21.50;;;5.15;;
19207;SDS011;9737;59.466;18.036;2023-04-03T04:52:37;19.97;;;3.97;;
19207;SDS011;9737;59.466;18.036;2023-04-03T04:55:05;10.25;;;4.20;;
19207;SDS011;9737;59.466;18.036;2023-04-03T04:57:33;12.57;;;4.30;;
19207;SDS011;9737;59.466;18.036;2023-04-03T05:00:04;11.82;;;3.80;;
19207;SDS011;9737;59.466;18.036;2023-04-03T05:02:33;23.75;;;6.22;;
19207;SDS011;9737;59.466;18.036;2023-04-03T05:05:01;17.85;;;6.05;;
19207;SDS011;9737;59.466;18.036;2023-04-03T05:07:30;22.75;;;5.65;;
19207;SDS011;9737;59.466;18.036;2023-04-03T05:09:58;17.02;;;3.85;;
19207;SDS011;9737;59.466;18.036;2023-04-03T05:12:26;12.27;;;2.92;;
19207;SDS011;9737;59.466;18.036;2023-04-03T05:14:54;12.95;;;3.60;;
19207;SDS011;9737;59.466;18.036;2023-04-03T05:17:24;7.50;;;2.83;;
19207;SDS011;9737;59.466;18.036;2023-04-03T05:19:52;13.50;;;3.40;;
19207;SDS011;9737;59.466;18.036;2023-04-03T05:22:19;6.82;;;2.80;;
19207;SDS011;9737;59.466;18.036;2023-04-03T05:24:47;8.75;;;3.10;;
19207;SDS011;9737;59.466;18.036;2023-04-03T05:27:16;5.97;;;3.58;;
19207;SDS011;9737;59.466;18.036;2023-04-03T05:29:44;7.10;;;3.10;;
19207;SDS011;9737;59.466;18.036;2023-04-03T05:32:12;18.48;;;3.15;;
19207;SDS011;9737;59.466;18.036;2023-04-03T05:34:41;9.00;;;3.10;;
19207;SDS011;9737;59.466;18.036;2023-04-03T05:37:09;13.27;;;3.08;;
19207;SDS011;9737;59.466;18.036;2023-04-03T05:39:37;4.78;;;3.33;;
19207;SDS011;9737;59.466;18.036;2023-04-03T05:42:07;8.80;;;3.03;;
19207;SDS011;9737;59.466;18.036;2023-04-03T05:44:35;13.00;;;3.53;;
19207;SDS011;9737;59.466;18.036;2023-04-03T05:47:03;20.25;;;3.45;;
19207;SDS011;9737;59.466;18.036;2023-04-03T05:49:31;6.90;;;3.30;;
19207;SDS011;9737;59.466;18.036;2023-04-03T05:52:00;13.50;;;3.35;;
19207;SDS011;9737;59.466;18.036;2023-04-03T05:54:29;18.38;;;3.22;;
19207;SDS011;9737;59.466;18.036;2023-04-03T05:56:57;13.40;;;3.80;;
19207;SDS011;9737;59.466;18.036;2023-04-03T05:59:25;14.15;;;3.28;;
19207;SDS011;9737;59.466;18.036;2023-04-03T06:01:53;14.35;;;3.08;;
19207;SDS011;9737;59.466;18.036;2023-04-03T06:04:22;12.38;;;2.83;;
19207;SDS011;9737;59.466;18.036;2023-04-03T06:06:50;11.13;;;3.05;;
19207;SDS011;9737;59.466;18.036;2023-04-03T06:09:21;16.17;;;3.08;;
19207;SDS011;9737;59.466;18.036;2023-04-03T06:11:52;9.52;;;2.70;;
19207;SDS011;9737;59.466;18.036;2023-04-03T06:14:20;11.85;;;2.97;;
19207;SDS011;9737;59.466;18.036;2023-04-03T06:16:48;8.07;;;2.70;;
19207;SDS011;9737;59.466;18.036;2023-04-03T06:19:15;7.15;;;2.45;;
19207;SDS011;9737;59.466;18.036;2023-04-03T06:21:43;8.38;;;3.08;;
19207;SDS011;9737;59.466;18.036;2023-04-03T06:24:12;16.33;;;2.97;;
19207;SDS011;9737;59.466;18.036;2023-04-03T06:26:44;8.57;;;2.55;;
19207;SDS011;9737;59.466;18.036;2023-04-03T06:29:12;18.77;;;2.70;;
19207;SDS011;9737;59.466;18.036;2023-04-03T06:31:40;12.13;;;2.80;;
19207;SDS011;9737;59.466;18.036;2023-04-03T06:34:08;9.43;;;2.50;;
19207;SDS011;9737;59.466;18.036;2023-04-03T06:36:37;41.60;;;4.40;;
19207;SDS011;9737;59.466;18.036;2023-04-03T06:39:05;11.98;;;2.70;;
19207;SDS011;9737;59.466;18.036;2023-04-03T06:41:33;12.50;;;2.67;;
19207;SDS011;9737;59.466;18.036;2023-04-03T06:44:04;4.82;;;2.50;;
19207;SDS011;9737;59.466;18.036;2023-04-03T06:46:32;6.70;;;2.78;;
19207;SDS011;9737;59.466;18.036;2023-04-03T06:49:00;5.85;;;2.10;;
19207;SDS011;9737;59.466;18.036;2023-04-03T06:51:28;6.32;;;2.50;;
19207;SDS011;9737;59.466;18.036;2023-04-03T06:53:57;9.60;;;2.38;;
19207;SDS011;9737;59.466;18.036;2023-04-03T06:56:26;35.10;;;3.50;;
19207;SDS011;9737;59.466;18.036;2023-04-03T06:58:55;19.77;;;2.80;;
19207;SDS011;9737;59.466;18.036;2023-04-03T07:01:28;13.07;;;2.60;;
19207;SDS011;9737;59.466;18.036;2023-04-03T07:03:57;6.70;;;2.65;;
19207;SDS011;9737;59.466;18.036;2023-04-03T07:06:25;6.40;;;2.22;;
19207;SDS011;9737;59.466;18.036;2023-04-03T07:08:54;14.68;;;2.50;;
19207;SDS011;9737;59.466;18.036;2023-04-03T07:11:23;10.07;;;2.47;;
19207;SDS011;9737;59.466;18.036;2023-04-03T07:13:51;8.38;;;2.33;;
19207;SDS011;9737;59.466;18.036;2023-04-03T07:16:19;10.48;;;2.42;;
19207;SDS011;9737;59.466;18.036;2023-04-03T07:18:49;11.82;;;2.30;;
19207;SDS011;9737;59.466;18.036;2023-04-03T07:21:17;9.88;;;2.72;;
19207;SDS011;9737;59.466;18.036;2023-04-03T07:23:45;6.18;;;2.45;;
19207;SDS011;9737;59.466;18.036;2023-04-03T07:26:20;4.13;;;1.90;;
19207;SDS011;9737;59.466;18.036;2023-04-03T07:28:49;7.05;;;2.10;;
19207;SDS011;9737;59.466;18.036;2023-04-03T07:31:17;9.82;;;2.60;;
19207;SDS011;9737;59.466;18.036;2023-04-03T07:33:50;9.27;;;2.47;;
19207;SDS011;9737;59.466;18.036;2023-04-03T07:36:19;8.10;;;2.28;;
19207;SDS011;9737;59.466;18.036;2023-04-03T07:38:49;7.00;;;2.40;;
19207;SDS011;9737;59.466;18.036;2023-04-03T07:41:17;3.65;;;1.80;;
19207;SDS011;9737;59.466;18.036;2023-04-03T07:43:48;5.25;;;1.85;;
19207;SDS011;9737;59.466;18.036;2023-04-03T07:46:17;9.65;;;2.08;;
19207;SDS011;9737;59.466;18.036;2023-04-03T07:48:45;10.23;;;2.05;;
19207;SDS011;9737;59.466;18.036;2023-04-03T07:51:14;7.50;;;2.30;;
19207;SDS011;9737;59.466;18.036;2023-04-03T07:53:42;9.45;;;2.10;;
19207;SDS011;9737;59.466;18.036;2023-04-03T07:56:10;5.10;;;2.00;;
19207;SDS011;9737;59.466;18.036;2023-04-03T07:58:38;10.73;;;1.92;;
19207;SDS011;9737;59.466;18.036;2023-04-03T08:01:06;6.35;;;2.30;;
19207;SDS011;9737;59.466;18.036;2023-04-03T08:03:34;6.07;;;2.30;;
19207;SDS011;9737;59.466;18.036;2023-04-03T08:06:04;6.55;;;1.75;;
19207;SDS011;9737;59.466;18.036;2023-04-03T08:08:42;7.88;;;2.20;;
19207;SDS011;9737;59.466;18.036;2023-04-03T08:11:10;6.30;;;2.05;;
19207;SDS011;9737;59.466;18.036;2023-04-03T08:13:38;6.30;;;1.80;;
19207;SDS011;9737;59.466;18.036;2023-04-03T08:16:08;6.30;;;2.22;;
19207;SDS011;9737;59.466;18.036;2023-04-03T08:18:38;6.57;;;2.67;;
19207;SDS011;9737;59.466;18.036;2023-04-03T08:21:06;7.07;;;2.15;;
19207;SDS011;9737;59.466;18.036;2023-04-03T08:23:35;5.47;;;1.92;;
19207;SDS011;9737;59.466;18.036;2023-04-03T08:26:08;9.70;;;2.35;;
19207;SDS011;9737;59.466;18.036;2023-04-03T08:28:37;6.72;;;1.77;;
19207;SDS011;9737;59.466;18.036;2023-04-03T08:31:05;6.40;;;2.03;;
19207;SDS011;9737;59.466;18.036;2023-04-03T08:33:37;7.68;;;2.08;;
19207;SDS011;9737;59.466;18.036;2023-04-03T08:36:06;8.02;;;1.70;;
19207;SDS011;9737;59.466;18.036;2023-04-03T08:38:36;4.15;;;1.95;;
19207;SDS011;9737;59.466;18.036;2023-04-03T08:41:04;7.30;;;1.95;;
19207;SDS011;9737;59.466;18.036;2023-04-03T08:43:45;5.43;;;1.88;;
19207;SDS011;9737;59.466;18.036;2023-04-03T08:46:22;9.27;;;1.60;;
19207;SDS011;9737;59.466;18.036;2023-04-03T08:48:58;16.45;;;2.42;;
19207;SDS011;9737;59.466;18.036;2023-04-03T08:51:27;6.78;;;1.63;;
19207;SDS011;9737;59.466;18.036;2023-04-03T08:53:56;8.45;;;1.95;;
19207;SDS011;9737;59.466;18.036;2023-04-03T08:56:30;13.07;;;1.75;;
19207;SDS011;9737;59.466;18.036;2023-04-03T08:59:01;7.57;;;2.10;;
19207;SDS011;9737;59.466;18.036;2023-04-03T09:01:34;6.22;;;1.80;;
19207;SDS011;9737;59.466;18.036;2023-04-03T09:04:09;7.53;;;3.05;;
19207;SDS011;9737;59.466;18.036;2023-04-03T09:06:40;9.50;;;2.58;;
19207;SDS011;9737;59.466;18.036;2023-04-03T09:09:13;8.98;;;3.53;;
19207;SDS011;9737;59.466;18.036;2023-04-03T09:11:46;4.82;;;1.70;;
19207;SDS011;9737;59.466;18.036;2023-04-03T09:14:26;7.85;;;2.17;;
19207;SDS011;9737;59.466;18.036;2023-04-03T09:17:01;7.47;;;2.88;;
19207;SDS011;9737;59.466;18.036;2023-04-03T09:19:35;28.73;;;4.55;;
19207;SDS011;9737;59.466;18.036;2023-04-03T09:22:11;11.00;;;3.83;;
19207;SDS011;9737;59.466;18.036;2023-04-03T09:24:44;13.93;;;2.60;;
19207;SDS011;9737;59.466;18.036;2023-04-03T09:27:15;4.50;;;1.63;;
19207;SDS011;9737;59.466;18.036;2023-04-03T09:29:44;4.10;;;1.50;;
19207;SDS011;9737;59.466;18.036;2023-04-03T09:32:18;4.40;;;1.80;;
19207;SDS011;9737;59.466;18.036;2023-04-03T09:34:49;5.50;;;1.70;;
19207;SDS011;9737;59.466;18.036;2023-04-03T09:40:28;6.18;;;1.65;;
19207;SDS011;9737;59.466;18.036;2023-04-03T09:43:00;12.27;;;1.90;;
19207;SDS011;9737;59.466;18.036;2023-04-03T09:45:30;4.38;;;1.80;;
19207;SDS011;9737;59.466;18.036;2023-04-03T09:48:07;4.55;;;1.60;;
19207;SDS011;9737;59.466;18.036;2023-04-03T09:50:52;5.95;;;1.98;;
19207;SDS011;9737;59.466;18.036;2023-04-03T09:53:26;4.45;;;1.67;;
19207;SDS011;9737;59.466;18.036;2023-04-03T09:55:59;4.18;;;1.80;;
19207;SDS011;9737;59.466;18.036;2023-04-03T09:58:31;3.38;;;1.63;;
19207;SDS011;9737;59.466;18.036;2023-04-03T10:01:26;5.05;;;1.70;;
19207;SDS011;9737;59.466;18.036;2023-04-03T10:04:03;7.50;;;1.52;;
19207;SDS011;9737;59.466;18.036;2023-04-03T10:06:34;4.30;;;1.40;;
19207;SDS011;9737;59.466;18.036;2023-04-03T10:09:13;7.45;;;1.50;;
19207;SDS011;9737;59.466;18.036;2023-04-03T10:11:59;3.90;;;1.50;;
19207;SDS011;9737;59.466;18.036;2023-04-03T10:14:32;6.13;;;1.58;;
19207;SDS011;9737;59.466;18.036;2023-04-03T10:17:03;5.93;;;1.92;;
19207;SDS011;9737;59.466;18.036;2023-04-03T10:19:43;6.07;;;1.27;;
19207;SDS011;9737;59.466;18.036;2023-04-03T10:22:22;10.00;;;1.38;;
19207;SDS011;9737;59.466;18.036;2023-04-03T10:25:01;4.03;;;1.33;;
19207;SDS011;9737;59.466;18.036;2023-04-03T10:27:35;5.43;;;1.20;;
19207;SDS011;9737;59.466;18.036;2023-04-03T10:30:17;4.15;;;1.25;;
19207;SDS011;9737;59.466;18.036;2023-04-03T10:32:55;3.63;;;1.30;;
19207;SDS011;9737;59.466;18.036;2023-04-03T10:35:34;3.13;;;1.10;;
19207;SDS011;9737;59.466;18.036;2023-04-03T10:38:12;4.05;;;1.33;;
19207;SDS011;9737;59.466;18.036;2023-04-03T10:40:49;3.92;;;1.30;;
19207;SDS011;9737;59.466;18.036;2023-04-03T10:43:25;2.50;;;1.10;;
19207;SDS011;9737;59.466;18.036;2023-04-03T10:46:02;6.28;;;1.27;;
19207;SDS011;9737;59.466;18.036;2023-04-03T10:48:38;4.07;;;1.13;;
19207;SDS011;9737;59.466;18.036;2023-04-03T10:51:14;2.53;;;1.30;;
19207;SDS011;9737;59.466;18.036;2023-04-03T10:53:51;6.18;;;1.67;;
19207;SDS011;9737;59.466;18.036;2023-04-03T10:56:26;3.63;;;1.23;;
19207;SDS011;9737;59.466;18.036;2023-04-03T10:59:00;6.20;;;1.30;;
19207;SDS011;9737;59.466;18.036;2023-04-03T11:01:37;11.65;;;1.38;;
19207;SDS011;9737;59.466;18.036;2023-04-03T11:04:08;7.07;;;1.40;;
19207;SDS011;9737;59.466;18.036;2023-04-03T11:06:39;2.17;;;1.05;;
19207;SDS011;9737;59.466;18.036;2023-04-03T11:09:15;3.53;;;1.20;;
19207;SDS011;9737;59.466;18.036;2023-04-03T11:11:48;3.67;;;1.02;;
19207;SDS011;9737;59.466;18.036;2023-04-03T11:14:22;2.63;;;1.17;;
19207;SDS011;9737;59.466;18.036;2023-04-03T11:17:01;14.02;;;1.30;;
19207;SDS011;9737;59.466;18.036;2023-04-03T11:19:39;9.73;;;1.20;;
19207;SDS011;9737;59.466;18.036;2023-04-03T11:22:14;6.68;;;1.30;;
19207;SDS011;9737;59.466;18.036;2023-04-03T11:24:51;4.95;;;1.27;;
19207;SDS011;9737;59.466;18.036;2023-04-03T11:27:25;2.78;;;0.95;;
19207;SDS011;9737;59.466;18.036;2023-04-03T11:30:06;1.60;;;0.80;;
19207;SDS011;9737;59.466;18.036;2023-04-03T11:35:53;4.53;;;1.20;;
19207;SDS011;9737;59.466;18.036;2023-04-03T11:38:26;3.25;;;0.90;;
19207;SDS011;9737;59.466;18.036;2023-04-03T11:41:01;0.88;;;0.60;;
19207;SDS011;9737;59.466;18.036;2023-04-03T11:43:30;3.60;;;0.88;;
19207;SDS011;9737;59.466;18.036;2023-04-03T11:46:00;5.40;;;1.10;;
19207;SDS011;9737;59.466;18.036;2023-04-03T11:48:44;1.35;;;0.82;;
19207;SDS011;9737;59.466;18.036;2023-04-03T11:51:37;2.85;;;0.98;;
19207;SDS011;9737;59.466;18.036;2023-04-03T12:12:58;11.45;;;1.58;;
19207;SDS011;9737;59.466;18.036;2023-04-03T12:21:24;5.07;;;1.05;;
19207;SDS011;9737;59.466;18.036;2023-04-03T12:24:33;3.42;;;0.93;;
19207;SDS011;9737;59.466;18.036;2023-04-03T12:27:04;3.97;;;1.10;;
19207;SDS011;9737;59.466;18.036;2023-04-03T12:29:46;6.15;;;1.23;;
19207;SDS011;9737;59.466;18.036;2023-04-03T12:32:22;1.50;;;1.00;;
19207;SDS011;9737;59.466;18.036;2023-04-03T12:35:09;2.17;;;0.80;;
19207;SDS011;9737;59.466;18.036;2023-04-03T12:38:05;5.90;;;1.27;;
19207;SDS011;9737;59.466;18.036;2023-04-03T12:40:50;4.00;;;1.08;;
19207;SDS011;9737;59.466;18.036;2023-04-03T12:43:31;2.83;;;1.45;;
19207;SDS011;9737;59.466;18.036;2023-04-03T12:46:10;5.18;;;1.00;;
19207;SDS011;9737;59.466;18.036;2023-04-03T12:48:47;5.95;;;0.88;;
19207;SDS011;9737;59.466;18.036;2023-04-03T12:51:18;4.05;;;2.00;;
19207;SDS011;9737;59.466;18.036;2023-04-03T12:53:51;1.77;;;1.00;;
19207;SDS011;9737;59.466;18.036;2023-04-03T12:56:25;6.88;;;1.67;;
19207;SDS011;9737;59.466;18.036;2023-04-03T12:58:55;6.30;;;2.95;;
19207;SDS011;9737;59.466;18.036;2023-04-03T13:01:39;10.32;;;2.70;;
19207;SDS011;9737;59.466;18.036;2023-04-03T13:04:09;6.03;;;1.75;;
19207;SDS011;9737;59.466;18.036;2023-04-03T13:06:39;10.05;;;3.22;;
19207;SDS011;9737;59.466;18.036;2023-04-03T13:09:19;25.95;;;7.80;;
19207;SDS011;9737;59.466;18.036;2023-04-03T13:11:49;14.30;;;4.85;;
19207;SDS011;9737;59.466;18.036;2023-04-03T13:14:20;2.45;;;1.25;;
19207;SDS011;9737;59.466;18.036;2023-04-03T13:16:52;16.02;;;6.45;;
19207;SDS011;9737;59.466;18.036;2023-04-03T13:19:22;20.92;;;6.85;;
19207;SDS011;9737;59.466;18.036;2023-04-03T13:21:56;4.63;;;2.65;;
19207;SDS011;9737;59.466;18.036;2023-04-03T13:24:28;5.50;;;0.95;;
19207;SDS011;9737;59.466;18.036;2023-04-03T13:26:57;3.33;;;1.10;;
19207;SDS011;9737;59.466;18.036;2023-04-03T13:29:27;2.60;;;1.00;;
19207;SDS011;9737;59.466;18.036;2023-04-03T13:31:57;39.05;;;3.08;;
19207;SDS011;9737;59.466;18.036;2023-04-03T13:34:27;3.13;;;1.10;;
19207;SDS011;9737;59.466;18.036;2023-04-03T13:36:58;22.10;;;1.90;;
19207;SDS011;9737;59.466;18.036;2023-04-03T13:39:29;3.95;;;0.93;;
19207;SDS011;9737;59.466;18.036;2023-04-03T13:41:59;3.97;;;0.90;;
19207;SDS011;9737;59.466;18.036;2023-04-03T13:44:46;12.35;;;1.65;;
19207;SDS011;9737;59.466;18.036;2023-04-03T13:47:16;6.57;;;2.40;;
19207;SDS011;9737;59.466;18.036;2023-04-03T13:49:46;3.60;;;1.15;;
19207;SDS011;9737;59.466;18.036;2023-04-03T13:52:28;11.13;;;1.20;;
19207;SDS011;9737;59.466;18.036;2023-04-03T13:55:01;5.25;;;0.98;;
19207;SDS011;9737;59.466;18.036;2023-04-03T13:57:35;3.25;;;0.98;;
19207;SDS011;9737;59.466;18.036;2023-04-03T14:03:01;118.50;;;6.30;;
19207;SDS011;9737;59.466;18.036;2023-04-03T14:05:29;23.98;;;1.50;;
19207;SDS011;9737;59.466;18.036;2023-04-03T14:07:58;22.13;;;1.35;;
19207;SDS011;9737;59.466;18.036;2023-04-03T14:10:30;1.92;;;0.80;;
19207;SDS011;9737;59.466;18.036;2023-04-03T14:13:00;2.17;;;1.00;;
19207;SDS011;9737;59.466;18.036;2023-04-03T14:15:28;5.43;;;1.00;;
19207;SDS011;9737;59.466;18.036;2023-04-03T14:17:58;3.28;;;1.05;;
19207;SDS011;9737;59.466;18.036;2023-04-03T14:20:30;3.90;;;1.00;;
19207;SDS011;9737;59.466;18.036;2023-04-03T14:22:58;2.25;;;0.80;;
19207;SDS011;9737;59.466;18.036;2023-04-03T14:25:25;10.20;;;1.13;;
19207;SDS011;9737;59.466;18.036;2023-04-03T14:27:55;6.35;;;1.20;;
19207;SDS011;9737;59.466;18.036;2023-04-03T14:30:25;7.03;;;1.77;;
19207;SDS011;9737;59.466;18.036;2023-04-03T14:32:54;5.97;;;1.20;;
19207;SDS011;9737;59.466;18.036;2023-04-03T14:35:22;2.28;;;1.00;;
19207;SDS011;9737;59.466;18.036;2023-04-03T14:37:51;1.35;;;1.00;;
19207;SDS011;9737;59.466;18.036;2023-04-03T14:40:20;4.43;;;1.08;;
19207;SDS011;9737;59.466;18.036;2023-04-03T14:42:51;24.67;;;1.45;;
19207;SDS011;9737;59.466;18.036;2023-04-03T14:45:23;3.15;;;1.10;;
19207;SDS011;9737;59.466;18.036;2023-04-03T14:47:52;5.28;;;1.00;;
19207;SDS011;9737;59.466;18.036;2023-04-03T14:50:22;31.05;;;2.08;;
19207;SDS011;9737;59.466;18.036;2023-04-03T14:52:53;5.07;;;1.90;;
19207;SDS011;9737;59.466;18.036;2023-04-03T14:55:22;4.03;;;1.20;;
19207;SDS011;9737;59.466;18.036;2023-04-03T14:57:51;91.22;;;5.18;;
19207;SDS011;9737;59.466;18.036;2023-04-03T15:00:21;31.80;;;2.33;;
19207;SDS011;9737;59.466;18.036;2023-04-03T15:02:50;3.08;;;1.10;;
19207;SDS011;9737;59.466;18.036;2023-04-03T15:05:18;1.67;;;0.82;;
19207;SDS011;9737;59.466;18.036;2023-04-03T15:07:48;3.72;;;1.08;;
19207;SDS011;9737;59.466;18.036;2023-04-03T15:10:20;3.63;;;1.00;;
19207;SDS011;9737;59.466;18.036;2023-04-03T15:12:50;3.10;;;1.00;;
19207;SDS011;9737;59.466;18.036;2023-04-03T15:15:19;5.28;;;0.95;;
19207;SDS011;9737;59.466;18.036;2023-04-03T15:17:50;2.95;;;0.88;;
19207;SDS011;9737;59.466;18.036;2023-04-03T15:20:22;4.13;;;1.10;;
19207;SDS011;9737;59.466;18.036;2023-04-03T15:22:50;3.38;;;1.27;;
19207;SDS011;9737;59.466;18.036;2023-04-03T15:25:18;3.38;;;1.00;;
19207;SDS011;9737;59.466;18.036;2023-04-03T15:27:46;21.08;;;1.85;;
19207;SDS011;9737;59.466;18.036;2023-04-03T15:30:15;8.80;;;1.27;;
19207;SDS011;9737;59.466;18.036;2023-04-03T15:32:45;6.63;;;0.90;;
19207;SDS011;9737;59.466;18.036;2023-04-03T15:35:15;4.38;;;1.10;;
19207;SDS011;9737;59.466;18.036;2023-04-03T15:37:43;6.75;;;1.30;;
19207;SDS011;9737;59.466;18.036;2023-04-03T15:40:11;7.80;;;1.45;;
19207;SDS011;9737;59.466;18.036;2023-04-03T15:42:39;2.90;;;1.40;;